sensor_id;sensor_type;location;lat;lon;timestamp;P1;durP1;ratioP1;P2;durP2;ratioP2
82163;SDS011;71736;38.734;-9.138;2023-10-19T00:00:45;18.40;;;2.70;;
82163;SDS011;71736;38.734;-9.138;2023-10-19T00:03:14;6.50;;;1.40;;
82163;SDS011;71736;38.734;-9.138;2023-10-19T00:05:40;10.80;;;1.90;;
82163;SDS011;71736;38.734;-9.138;2023-10-19T00:08:12;15.20;;;2.50;;
82163;SDS011;71736;38.734;-9.138;2023-10-19T00:10:42;9.00;;;2.00;;
82163;SDS011;71736;38.734;-9.138;2023-10-19T00:13:08;9.10;;;1.50;;
82163;SDS011;71736;38.734;-9.138;2023-10-19T00:15:37;9.40;;;1.60;;
82163;SDS011;71736;38.734;-9.138;2023-10-19T00:18:12;8.80;;;2.00;;
82163;SDS011;71736;38.734;-9.138;2023-10-19T00:20:48;16.70;;;3.20;;
82163;SDS011;71736;38.734;-9.138;2023-10-19T00:23:20;16.90;;;2.40;;
82163;SDS011;71736;38.734;-9.138;2023-10-19T00:26:03;15.20;;;2.40;;
82163;SDS011;71736;38.734;-9.138;2023-10-19T00:28:40;17.70;;;2.60;;
82163;SDS011;71736;38.734;-9.138;2023-10-19T00:31:05;10.60;;;1.80;;
82163;SDS011;71736;38.734;-9.138;2023-10-19T00:33:36;11.90;;;1.80;;
82163;SDS011;71736;38.734;-9.138;2023-10-19T00:36:04;15.60;;;2.80;;
82163;SDS011;71736;38.734;-9.138;2023-10-19T00:38:50;12.80;;;2.60;;
82163;SDS011;71736;38.734;-9.138;2023-10-19T00:41:24;6.30;;;1.30;;
82163;SDS011;71736;38.734;-9.138;2023-10-19T00:43:57;13.70;;;2.70;;
82163;SDS011;71736;38.734;-9.138;2023-10-19T00:46:30;10.00;;;2.30;;
82163;SDS011;71736;38.734;-9.138;2023-10-19T00:49:08;8.00;;;1.30;;
82163;SDS011;71736;38.734;-9.138;2023-10-19T00:54:23;11.50;;;2.10;;
82163;SDS011;71736;38.734;-9.138;2023-10-19T00:56:56;6.70;;;2.20;;
82163;SDS011;71736;38.734;-9.138;2023-10-19T00:59:28;10.50;;;2.30;;
82163;SDS011;71736;38.734;-9.138;2023-10-19T01:02:01;12.20;;;2.60;;
82163;SDS011;71736;38.734;-9.138;2023-10-19T01:04:47;10.70;;;2.00;;
82163;SDS011;71736;38.734;-9.138;2023-10-19T01:07:25;13.20;;;2.50;;
82163;SDS011;71736;38.734;-9.138;2023-10-19T01:09:51;10.40;;;1.60;;
82163;SDS011;71736;38.734;-9.138;2023-10-19T01:12:21;8.20;;;1.60;;
82163;SDS011;71736;38.734;-9.138;2023-10-19T01:17:39;13.20;;;2.10;;
82163;SDS011;71736;38.734;-9.138;2023-10-19T01:20:09;8.70;;;2.10;;
82163;SDS011;71736;38.734;-9.138;2023-10-19T01:22:48;11.20;;;1.60;;
82163;SDS011;71736;38.734;-9.138;2023-10-19T01:25:45;14.30;;;1.90;;
82163;SDS011;71736;38.734;-9.138;2023-10-19T01:28:15;9.70;;;1.70;;
82163;SDS011;71736;38.734;-9.138;2023-10-19T01:30:42;10.50;;;2.30;;
82163;SDS011;71736;38.734;-9.138;2023-10-19T01:33:16;12.10;;;3.20;;
82163;SDS011;71736;38.734;-9.138;2023-10-19T01:35:46;6.90;;;2.00;;
82163;SDS011;71736;38.734;-9.138;2023-10-19T01:40:59;8.10;;;1.10;;
82163;SDS011;71736;38.734;-9.138;2023-10-19T01:43:31;4.00;;;0.80;;
82163;SDS011;71736;38.734;-9.138;2023-10-19T01:45:58;5.70;;;1.30;;
82163;SDS011;71736;38.734;-9.138;2023-10-19T01:48:30;5.70;;;1.10;;
82163;SDS011;71736;38.734;-9.138;2023-10-19T01:50:59;3.90;;;0.80;;
82163;SDS011;71736;38.734;-9.138;2023-10-19T01:53:29;6.70;;;1.30;;
82163;SDS011;71736;38.734;-9.138;2023-10-19T01:55:55;8.00;;;1.60;;
82163;SDS011;71736;38.734;-9.138;2023-10-19T01:58:24;5.40;;;1.30;;
82163;SDS011;71736;38.734;-9.138;2023-10-19T02:00:53;7.30;;;1.40;;
82163;SDS011;71736;38.734;-9.138;2023-10-19T02:03:32;12.50;;;1.70;;
82163;SDS011;71736;38.734;-9.138;2023-10-19T02:05:58;10.10;;;3.00;;
82163;SDS011;71736;38.734;-9.138;2023-10-19T02:08:27;9.00;;;1.80;;
82163;SDS011;71736;38.734;-9.138;2023-10-19T02:10:53;9.20;;;2.10;;
82163;SDS011;71736;38.734;-9.138;2023-10-19T02:13:19;11.10;;;2.40;;
82163;SDS011;71736;38.734;-9.138;2023-10-19T02:15:45;8.50;;;1.30;;
82163;SDS011;71736;38.734;-9.138;2023-10-19T02:18:11;5.10;;;0.90;;
82163;SDS011;71736;38.734;-9.138;2023-10-19T02:20:36;6.90;;;1.40;;
82163;SDS011;71736;38.734;-9.138;2023-10-19T02:23:09;11.40;;;1.90;;
82163;SDS011;71736;38.734;-9.138;2023-10-19T02:25:34;5.90;;;1.30;;
82163;SDS011;71736;38.734;-9.138;2023-10-19T02:28:03;4.60;;;0.90;;
82163;SDS011;71736;38.734;-9.138;2023-10-19T02:30:32;6.80;;;1.10;;
82163;SDS011;71736;38.734;-9.138;2023-10-19T02:32:59;6.30;;;1.30;;
82163;SDS011;71736;38.734;-9.138;2023-10-19T02:35:31;5.90;;;1.20;;
82163;SDS011;71736;38.734;-9.138;2023-10-19T02:37:57;6.60;;;1.40;;
82163;SDS011;71736;38.734;-9.138;2023-10-19T02:40:23;4.80;;;1.80;;
82163;SDS011;71736;38.734;-9.138;2023-10-19T02:42:49;3.60;;;0.60;;
82163;SDS011;71736;38.734;-9.138;2023-10-19T02:45:21;5.30;;;0.90;;
82163;SDS011;71736;38.734;-9.138;2023-10-19T02:47:46;4.70;;;1.30;;
82163;SDS011;71736;38.734;-9.138;2023-10-19T02:50:12;4.80;;;1.10;;
82163;SDS011;71736;38.734;-9.138;2023-10-19T02:52:41;5.90;;;1.20;;
82163;SDS011;71736;38.734;-9.138;2023-10-19T02:55:08;4.30;;;1.10;;
82163;SDS011;71736;38.734;-9.138;2023-10-19T02:57:35;7.30;;;1.10;;
82163;SDS011;71736;38.734;-9.138;2023-10-19T03:00:04;6.60;;;1.10;;
82163;SDS011;71736;38.734;-9.138;2023-10-19T03:02:38;6.70;;;1.10;;
82163;SDS011;71736;38.734;-9.138;2023-10-19T03:05:04;7.80;;;1.80;;
82163;SDS011;71736;38.734;-9.138;2023-10-19T03:07:43;5.20;;;0.90;;
82163;SDS011;71736;38.734;-9.138;2023-10-19T03:10:09;6.90;;;0.60;;
82163;SDS011;71736;38.734;-9.138;2023-10-19T03:13:00;3.20;;;0.80;;
82163;SDS011;71736;38.734;-9.138;2023-10-19T03:15:26;2.80;;;0.70;;
82163;SDS011;71736;38.734;-9.138;2023-10-19T03:17:55;3.40;;;0.70;;
82163;SDS011;71736;38.734;-9.138;2023-10-19T03:20:21;3.20;;;0.70;;
82163;SDS011;71736;38.734;-9.138;2023-10-19T03:22:50;5.10;;;1.10;;
82163;SDS011;71736;38.734;-9.138;2023-10-19T03:25:16;6.50;;;1.40;;
82163;SDS011;71736;38.734;-9.138;2023-10-19T03:28:00;8.20;;;2.00;;
82163;SDS011;71736;38.734;-9.138;2023-10-19T03:30:37;8.40;;;1.30;;
82163;SDS011;71736;38.734;-9.138;2023-10-19T03:33:06;3.70;;;0.50;;
82163;SDS011;71736;38.734;-9.138;2023-10-19T03:35:36;10.80;;;2.00;;
82163;SDS011;71736;38.734;-9.138;2023-10-19T03:38:04;8.10;;;1.90;;
82163;SDS011;71736;38.734;-9.138;2023-10-19T03:40:44;8.40;;;1.00;;
82163;SDS011;71736;38.734;-9.138;2023-10-19T03:43:17;8.40;;;1.70;;
82163;SDS011;71736;38.734;-9.138;2023-10-19T03:45:47;12.40;;;1.70;;
82163;SDS011;71736;38.734;-9.138;2023-10-19T03:48:24;11.40;;;1.60;;
82163;SDS011;71736;38.734;-9.138;2023-10-19T03:50:55;8.90;;;1.90;;
82163;SDS011;71736;38.734;-9.138;2023-10-19T03:53:21;7.50;;;1.90;;
82163;SDS011;71736;38.734;-9.138;2023-10-19T03:55:47;10.10;;;1.90;;
82163;SDS011;71736;38.734;-9.138;2023-10-19T03:58:15;10.20;;;1.80;;
82163;SDS011;71736;38.734;-9.138;2023-10-19T04:03:07;4.90;;;1.10;;
82163;SDS011;71736;38.734;-9.138;2023-10-19T04:05:32;11.90;;;3.10;;
82163;SDS011;71736;38.734;-9.138;2023-10-19T04:08:04;11.80;;;2.40;;
82163;SDS011;71736;38.734;-9.138;2023-10-19T04:10:38;5.30;;;1.50;;
82163;SDS011;71736;38.734;-9.138;2023-10-19T04:13:04;14.60;;;2.50;;
82163;SDS011;71736;38.734;-9.138;2023-10-19T04:15:34;8.90;;;1.50;;
82163;SDS011;71736;38.734;-9.138;2023-10-19T04:20:27;9.80;;;2.30;;
82163;SDS011;71736;38.734;-9.138;2023-10-19T04:23:22;17.60;;;3.30;;
82163;SDS011;71736;38.734;-9.138;2023-10-19T04:26:00;11.20;;;2.50;;
82163;SDS011;71736;38.734;-9.138;2023-10-19T04:28:30;12.60;;;2.60;;
82163;SDS011;71736;38.734;-9.138;2023-10-19T04:31:03;12.80;;;1.90;;
82163;SDS011;71736;38.734;-9.138;2023-10-19T04:33:30;14.60;;;2.30;;
82163;SDS011;71736;38.734;-9.138;2023-10-19T04:35:56;14.20;;;2.00;;
82163;SDS011;71736;38.734;-9.138;2023-10-19T04:38:24;11.40;;;2.10;;
82163;SDS011;71736;38.734;-9.138;2023-10-19T04:40:49;11.10;;;1.80;;
82163;SDS011;71736;38.734;-9.138;2023-10-19T04:43:15;16.90;;;2.50;;
82163;SDS011;71736;38.734;-9.138;2023-10-19T04:45:41;14.30;;;2.50;;
82163;SDS011;71736;38.734;-9.138;2023-10-19T04:48:09;11.70;;;2.20;;
82163;SDS011;71736;38.734;-9.138;2023-10-19T04:50:35;10.20;;;2.00;;
82163;SDS011;71736;38.734;-9.138;2023-10-19T04:53:01;13.90;;;2.00;;
82163;SDS011;71736;38.734;-9.138;2023-10-19T04:55:28;8.20;;;1.50;;
82163;SDS011;71736;38.734;-9.138;2023-10-19T04:57:55;10.90;;;2.60;;
82163;SDS011;71736;38.734;-9.138;2023-10-19T05:00:22;10.00;;;1.70;;
82163;SDS011;71736;38.734;-9.138;2023-10-19T05:02:49;7.90;;;1.70;;
82163;SDS011;71736;38.734;-9.138;2023-10-19T05:05:17;10.90;;;2.30;;
82163;SDS011;71736;38.734;-9.138;2023-10-19T05:07:43;13.60;;;2.00;;
82163;SDS011;71736;38.734;-9.138;2023-10-19T05:10:09;10.40;;;2.50;;
82163;SDS011;71736;38.734;-9.138;2023-10-19T05:12:36;10.60;;;2.00;;
82163;SDS011;71736;38.734;-9.138;2023-10-19T05:15:02;9.40;;;1.70;;
82163;SDS011;71736;38.734;-9.138;2023-10-19T05:17:31;4.20;;;1.00;;
82163;SDS011;71736;38.734;-9.138;2023-10-19T05:19:56;6.50;;;1.10;;
82163;SDS011;71736;38.734;-9.138;2023-10-19T05:22:23;6.40;;;1.30;;
82163;SDS011;71736;38.734;-9.138;2023-10-19T05:24:50;7.90;;;1.80;;
82163;SDS011;71736;38.734;-9.138;2023-10-19T05:27:16;3.80;;;1.20;;
82163;SDS011;71736;38.734;-9.138;2023-10-19T05:29:42;5.80;;;1.40;;
82163;SDS011;71736;38.734;-9.138;2023-10-19T05:32:09;4.10;;;0.80;;
82163;SDS011;71736;38.734;-9.138;2023-10-19T05:34:34;7.20;;;1.80;;
82163;SDS011;71736;38.734;-9.138;2023-10-19T05:37:01;4.00;;;0.90;;
82163;SDS011;71736;38.734;-9.138;2023-10-19T05:39:30;8.20;;;1.50;;
82163;SDS011;71736;38.734;-9.138;2023-10-19T05:41:58;6.80;;;1.20;;
82163;SDS011;71736;38.734;-9.138;2023-10-19T05:44:29;6.00;;;1.20;;
82163;SDS011;71736;38.734;-9.138;2023-10-19T05:46:55;4.70;;;1.20;;
82163;SDS011;71736;38.734;-9.138;2023-10-19T05:49:21;8.40;;;1.30;;
82163;SDS011;71736;38.734;-9.138;2023-10-19T05:51:49;7.30;;;1.80;;
82163;SDS011;71736;38.734;-9.138;2023-10-19T05:54:15;6.10;;;1.20;;
82163;SDS011;71736;38.734;-9.138;2023-10-19T05:56:42;3.40;;;1.40;;
82163;SDS011;71736;38.734;-9.138;2023-10-19T05:59:08;10.70;;;1.70;;
82163;SDS011;71736;38.734;-9.138;2023-10-19T06:01:35;7.90;;;1.50;;
82163;SDS011;71736;38.734;-9.138;2023-10-19T06:04:02;9.10;;;2.80;;
82163;SDS011;71736;38.734;-9.138;2023-10-19T06:06:28;9.70;;;2.30;;
82163;SDS011;71736;38.734;-9.138;2023-10-19T06:08:53;7.20;;;1.60;;
82163;SDS011;71736;38.734;-9.138;2023-10-19T06:11:20;7.80;;;1.80;;
82163;SDS011;71736;38.734;-9.138;2023-10-19T06:13:46;8.40;;;1.30;;
82163;SDS011;71736;38.734;-9.138;2023-10-19T06:16:11;7.30;;;1.70;;
82163;SDS011;71736;38.734;-9.138;2023-10-19T06:18:37;8.60;;;2.30;;
82163;SDS011;71736;38.734;-9.138;2023-10-19T06:21:02;10.70;;;2.40;;
82163;SDS011;71736;38.734;-9.138;2023-10-19T06:25:56;9.40;;;2.10;;
82163;SDS011;71736;38.734;-9.138;2023-10-19T06:28:22;10.80;;;2.10;;
82163;SDS011;71736;38.734;-9.138;2023-10-19T06:30:48;12.50;;;2.90;;
82163;SDS011;71736;38.734;-9.138;2023-10-19T06:33:13;15.90;;;3.50;;
82163;SDS011;71736;38.734;-9.138;2023-10-19T06:35:39;12.70;;;2.30;;
82163;SDS011;71736;38.734;-9.138;2023-10-19T06:38:05;12.10;;;2.60;;
82163;SDS011;71736;38.734;-9.138;2023-10-19T06:40:34;10.60;;;2.40;;
82163;SDS011;71736;38.734;-9.138;2023-10-19T06:43:01;9.20;;;1.90;;
82163;SDS011;71736;38.734;-9.138;2023-10-19T06:47:55;15.80;;;2.50;;
82163;SDS011;71736;38.734;-9.138;2023-10-19T06:50:21;15.30;;;3.20;;
82163;SDS011;71736;38.734;-9.138;2023-10-19T06:52:47;13.10;;;3.40;;
82163;SDS011;71736;38.734;-9.138;2023-10-19T06:55:14;14.60;;;3.00;;
82163;SDS011;71736;38.734;-9.138;2023-10-19T06:57:54;17.80;;;3.50;;
82163;SDS011;71736;38.734;-9.138;2023-10-19T07:02:53;16.80;;;3.50;;
82163;SDS011;71736;38.734;-9.138;2023-10-19T07:05:20;16.90;;;4.20;;
82163;SDS011;71736;38.734;-9.138;2023-10-19T07:07:48;17.50;;;2.70;;
82163;SDS011;71736;38.734;-9.138;2023-10-19T07:10:15;12.10;;;3.40;;
82163;SDS011;71736;38.734;-9.138;2023-10-19T07:12:43;17.70;;;3.30;;
82163;SDS011;71736;38.734;-9.138;2023-10-19T07:15:11;15.40;;;3.80;;
82163;SDS011;71736;38.734;-9.138;2023-10-19T07:17:41;16.90;;;2.90;;
82163;SDS011;71736;38.734;-9.138;2023-10-19T07:20:08;13.80;;;1.90;;
82163;SDS011;71736;38.734;-9.138;2023-10-19T07:22:47;20.20;;;3.70;;
82163;SDS011;71736;38.734;-9.138;2023-10-19T07:25:13;7.30;;;1.70;;
82163;SDS011;71736;38.734;-9.138;2023-10-19T07:27:38;13.30;;;2.00;;
82163;SDS011;71736;38.734;-9.138;2023-10-19T07:30:08;13.10;;;3.20;;
82163;SDS011;71736;38.734;-9.138;2023-10-19T07:32:34;12.30;;;2.30;;
82163;SDS011;71736;38.734;-9.138;2023-10-19T07:35:00;17.10;;;3.20;;
82163;SDS011;71736;38.734;-9.138;2023-10-19T07:37:26;12.10;;;1.80;;
82163;SDS011;71736;38.734;-9.138;2023-10-19T07:39:54;13.90;;;2.00;;
82163;SDS011;71736;38.734;-9.138;2023-10-19T07:42:22;11.60;;;1.80;;
82163;SDS011;71736;38.734;-9.138;2023-10-19T07:44:48;13.50;;;4.20;;
82163;SDS011;71736;38.734;-9.138;2023-10-19T07:47:14;11.40;;;2.40;;
82163;SDS011;71736;38.734;-9.138;2023-10-19T07:49:39;13.70;;;2.00;;
82163;SDS011;71736;38.734;-9.138;2023-10-19T07:52:05;13.60;;;2.90;;
82163;SDS011;71736;38.734;-9.138;2023-10-19T07:56:58;14.90;;;2.90;;
82163;SDS011;71736;38.734;-9.138;2023-10-19T07:59:28;14.60;;;2.90;;
82163;SDS011;71736;38.734;-9.138;2023-10-19T08:01:54;19.20;;;3.20;;
82163;SDS011;71736;38.734;-9.138;2023-10-19T08:04:20;18.90;;;3.50;;
82163;SDS011;71736;38.734;-9.138;2023-10-19T08:06:45;13.70;;;3.00;;
82163;SDS011;71736;38.734;-9.138;2023-10-19T08:09:12;15.60;;;2.30;;
82163;SDS011;71736;38.734;-9.138;2023-10-19T08:11:38;14.30;;;2.20;;
82163;SDS011;71736;38.734;-9.138;2023-10-19T08:14:03;15.40;;;2.60;;
82163;SDS011;71736;38.734;-9.138;2023-10-19T08:16:30;18.50;;;2.80;;
82163;SDS011;71736;38.734;-9.138;2023-10-19T08:18:57;13.90;;;2.30;;
82163;SDS011;71736;38.734;-9.138;2023-10-19T08:23:48;18.20;;;2.60;;
82163;SDS011;71736;38.734;-9.138;2023-10-19T08:26:13;8.20;;;1.90;;
82163;SDS011;71736;38.734;-9.138;2023-10-19T08:28:40;13.60;;;2.40;;
82163;SDS011;71736;38.734;-9.138;2023-10-19T08:31:07;14.70;;;3.00;;
82163;SDS011;71736;38.734;-9.138;2023-10-19T08:33:35;26.00;;;4.90;;
82163;SDS011;71736;38.734;-9.138;2023-10-19T08:36:04;11.30;;;3.20;;
82163;SDS011;71736;38.734;-9.138;2023-10-19T08:38:30;22.60;;;3.60;;
82163;SDS011;71736;38.734;-9.138;2023-10-19T08:40:55;13.30;;;2.60;;
82163;SDS011;71736;38.734;-9.138;2023-10-19T08:43:22;18.60;;;3.40;;
82163;SDS011;71736;38.734;-9.138;2023-10-19T08:45:49;15.20;;;3.30;;
82163;SDS011;71736;38.734;-9.138;2023-10-19T08:48:14;16.70;;;2.50;;
82163;SDS011;71736;38.734;-9.138;2023-10-19T08:50:40;15.70;;;2.60;;
82163;SDS011;71736;38.734;-9.138;2023-10-19T08:53:07;18.80;;;4.70;;
82163;SDS011;71736;38.734;-9.138;2023-10-19T08:55:33;16.10;;;3.30;;
82163;SDS011;71736;38.734;-9.138;2023-10-19T08:58:00;17.60;;;3.30;;
82163;SDS011;71736;38.734;-9.138;2023-10-19T09:00:26;16.40;;;2.80;;
82163;SDS011;71736;38.734;-9.138;2023-10-19T09:02:52;12.80;;;2.30;;
82163;SDS011;71736;38.734;-9.138;2023-10-19T09:05:19;17.10;;;3.30;;
82163;SDS011;71736;38.734;-9.138;2023-10-19T09:07:47;14.00;;;2.70;;
82163;SDS011;71736;38.734;-9.138;2023-10-19T09:10:22;18.10;;;3.50;;
82163;SDS011;71736;38.734;-9.138;2023-10-19T09:15:39;11.40;;;2.40;;
82163;SDS011;71736;38.734;-9.138;2023-10-19T09:20:49;13.00;;;2.60;;
82163;SDS011;71736;38.734;-9.138;2023-10-19T09:23:22;20.20;;;4.00;;
82163;SDS011;71736;38.734;-9.138;2023-10-19T09:25:50;15.20;;;2.80;;
82163;SDS011;71736;38.734;-9.138;2023-10-19T09:28:19;13.10;;;3.10;;
82163;SDS011;71736;38.734;-9.138;2023-10-19T09:30:49;18.40;;;3.70;;
82163;SDS011;71736;38.734;-9.138;2023-10-19T09:33:15;18.30;;;3.90;;
82163;SDS011;71736;38.734;-9.138;2023-10-19T09:35:46;15.80;;;2.80;;
82163;SDS011;71736;38.734;-9.138;2023-10-19T09:38:14;17.10;;;3.60;;
82163;SDS011;71736;38.734;-9.138;2023-10-19T09:40:40;14.80;;;2.70;;
82163;SDS011;71736;38.734;-9.138;2023-10-19T09:43:08;21.20;;;4.50;;
82163;SDS011;71736;38.734;-9.138;2023-10-19T09:48:07;23.60;;;3.80;;
82163;SDS011;71736;38.734;-9.138;2023-10-19T09:50:33;18.60;;;2.60;;
82163;SDS011;71736;38.734;-9.138;2023-10-19T09:52:59;14.20;;;2.70;;
82163;SDS011;71736;38.734;-9.138;2023-10-19T09:55:37;14.80;;;3.50;;
82163;SDS011;71736;38.734;-9.138;2023-10-19T09:58:12;16.20;;;4.10;;
82163;SDS011;71736;38.734;-9.138;2023-10-19T10:00:45;29.90;;;4.80;;
82163;SDS011;71736;38.734;-9.138;2023-10-19T10:08:38;16.20;;;3.20;;
82163;SDS011;71736;38.734;-9.138;2023-10-19T10:11:15;21.50;;;3.30;;
82163;SDS011;71736;38.734;-9.138;2023-10-19T10:13:42;17.30;;;3.00;;
82163;SDS011;71736;38.734;-9.138;2023-10-19T10:16:08;18.80;;;3.60;;
82163;SDS011;71736;38.734;-9.138;2023-10-19T10:18:34;12.90;;;3.70;;
82163;SDS011;71736;38.734;-9.138;2023-10-19T10:23:50;15.90;;;2.90;;
82163;SDS011;71736;38.734;-9.138;2023-10-19T10:26:23;9.90;;;2.80;;
82163;SDS011;71736;38.734;-9.138;2023-10-19T10:31:35;16.10;;;3.10;;
82163;SDS011;71736;38.734;-9.138;2023-10-19T10:34:05;16.90;;;3.80;;
82163;SDS011;71736;38.734;-9.138;2023-10-19T10:36:56;13.30;;;2.50;;
82163;SDS011;71736;38.734;-9.138;2023-10-19T10:39:27;15.20;;;3.40;;
82163;SDS011;71736;38.734;-9.138;2023-10-19T10:41:59;11.70;;;2.90;;
82163;SDS011;71736;38.734;-9.138;2023-10-19T10:47:12;19.40;;;2.80;;
82163;SDS011;71736;38.734;-9.138;2023-10-19T10:54:48;15.40;;;2.90;;
82163;SDS011;71736;38.734;-9.138;2023-10-19T10:57:13;16.10;;;3.00;;
82163;SDS011;71736;38.734;-9.138;2023-10-19T10:59:39;14.30;;;3.10;;
82163;SDS011;71736;38.734;-9.138;2023-10-19T11:02:16;14.40;;;2.60;;
82163;SDS011;71736;38.734;-9.138;2023-10-19T11:04:43;9.70;;;1.90;;
82163;SDS011;71736;38.734;-9.138;2023-10-19T11:07:17;13.90;;;2.90;;
82163;SDS011;71736;38.734;-9.138;2023-10-19T11:09:44;10.90;;;2.00;;
82163;SDS011;71736;38.734;-9.138;2023-10-19T11:12:11;13.50;;;3.40;;
82163;SDS011;71736;38.734;-9.138;2023-10-19T11:14:38;6.10;;;1.10;;
82163;SDS011;71736;38.734;-9.138;2023-10-19T11:17:18;5.90;;;1.70;;
82163;SDS011;71736;38.734;-9.138;2023-10-19T11:19:44;13.30;;;2.40;;
82163;SDS011;71736;38.734;-9.138;2023-10-19T11:22:10;7.10;;;1.60;;
82163;SDS011;71736;38.734;-9.138;2023-10-19T11:24:36;12.00;;;2.80;;
82163;SDS011;71736;38.734;-9.138;2023-10-19T11:27:05;18.40;;;4.60;;
82163;SDS011;71736;38.734;-9.138;2023-10-19T11:29:33;9.00;;;1.60;;
82163;SDS011;71736;38.734;-9.138;2023-10-19T11:32:02;2.30;;;0.60;;
82163;SDS011;71736;38.734;-9.138;2023-10-19T11:34:28;4.50;;;1.00;;
82163;SDS011;71736;38.734;-9.138;2023-10-19T11:36:57;3.20;;;0.80;;
82163;SDS011;71736;38.734;-9.138;2023-10-19T11:39:25;4.40;;;1.10;;
82163;SDS011;71736;38.734;-9.138;2023-10-19T11:44:18;2.80;;;1.50;;
82163;SDS011;71736;38.734;-9.138;2023-10-19T11:46:45;3.40;;;1.10;;
82163;SDS011;71736;38.734;-9.138;2023-10-19T11:49:10;7.80;;;2.00;;
82163;SDS011;71736;38.734;-9.138;2023-10-19T11:51:36;4.40;;;2.20;;
82163;SDS011;71736;38.734;-9.138;2023-10-19T11:54:04;3.80;;;1.40;;
82163;SDS011;71736;38.734;-9.138;2023-10-19T11:56:31;3.00;;;0.80;;
82163;SDS011;71736;38.734;-9.138;2023-10-19T11:58:57;4.70;;;1.00;;
82163;SDS011;71736;38.734;-9.138;2023-10-19T12:01:22;4.60;;;1.40;;
82163;SDS011;71736;38.734;-9.138;2023-10-19T12:03:50;8.50;;;1.30;;
82163;SDS011;71736;38.734;-9.138;2023-10-19T12:06:16;9.20;;;1.90;;
82163;SDS011;71736;38.734;-9.138;2023-10-19T12:08:44;9.10;;;1.80;;
82163;SDS011;71736;38.734;-9.138;2023-10-19T12:11:10;8.20;;;2.10;;
82163;SDS011;71736;38.734;-9.138;2023-10-19T12:13:43;10.80;;;1.90;;
82163;SDS011;71736;38.734;-9.138;2023-10-19T12:16:10;7.60;;;2.10;;
82163;SDS011;71736;38.734;-9.138;2023-10-19T12:18:41;4.30;;;0.80;;
82163;SDS011;71736;38.734;-9.138;2023-10-19T12:21:09;3.70;;;0.80;;
82163;SDS011;71736;38.734;-9.138;2023-10-19T12:23:41;5.90;;;1.20;;
82163;SDS011;71736;38.734;-9.138;2023-10-19T12:26:08;4.80;;;1.40;;
82163;SDS011;71736;38.734;-9.138;2023-10-19T12:28:39;7.40;;;1.60;;
82163;SDS011;71736;38.734;-9.138;2023-10-19T12:31:06;5.30;;;1.60;;
82163;SDS011;71736;38.734;-9.138;2023-10-19T12:33:36;5.10;;;1.40;;
82163;SDS011;71736;38.734;-9.138;2023-10-19T12:36:03;10.40;;;2.00;;
82163;SDS011;71736;38.734;-9.138;2023-10-19T12:38:49;7.10;;;1.60;;
82163;SDS011;71736;38.734;-9.138;2023-10-19T12:41:16;5.90;;;1.60;;
82163;SDS011;71736;38.734;-9.138;2023-10-19T12:43:42;7.40;;;1.50;;
82163;SDS011;71736;38.734;-9.138;2023-10-19T12:46:08;9.50;;;2.70;;
82163;SDS011;71736;38.734;-9.138;2023-10-19T12:48:37;8.50;;;2.50;;
82163;SDS011;71736;38.734;-9.138;2023-10-19T12:51:02;6.50;;;1.70;;
82163;SDS011;71736;38.734;-9.138;2023-10-19T12:53:29;7.40;;;1.60;;
82163;SDS011;71736;38.734;-9.138;2023-10-19T12:55:55;6.50;;;1.60;;
82163;SDS011;71736;38.734;-9.138;2023-10-19T12:58:20;9.90;;;2.20;;
82163;SDS011;71736;38.734;-9.138;2023-10-19T13:00:47;7.50;;;3.10;;
82163;SDS011;71736;38.734;-9.138;2023-10-19T13:05:40;11.30;;;2.70;;
82163;SDS011;71736;38.734;-9.138;2023-10-19T13:08:07;11.40;;;1.90;;
82163;SDS011;71736;38.734;-9.138;2023-10-19T13:10:33;13.00;;;2.40;;
82163;SDS011;71736;38.734;-9.138;2023-10-19T13:13:00;7.10;;;1.50;;
82163;SDS011;71736;38.734;-9.138;2023-10-19T13:15:31;11.30;;;1.90;;
82163;SDS011;71736;38.734;-9.138;2023-10-19T13:17:59;7.60;;;1.60;;
82163;SDS011;71736;38.734;-9.138;2023-10-19T13:20:26;6.40;;;1.60;;
82163;SDS011;71736;38.734;-9.138;2023-10-19T13:22:53;12.70;;;3.10;;
82163;SDS011;71736;38.734;-9.138;2023-10-19T13:25:21;11.40;;;2.40;;
82163;SDS011;71736;38.734;-9.138;2023-10-19T13:28:05;11.10;;;2.20;;
82163;SDS011;71736;38.734;-9.138;2023-10-19T13:30:45;13.90;;;2.80;;
82163;SDS011;71736;38.734;-9.138;2023-10-19T13:33:15;6.60;;;2.20;;
82163;SDS011;71736;38.734;-9.138;2023-10-19T13:35:42;6.00;;;2.00;;
82163;SDS011;71736;38.734;-9.138;2023-10-19T13:38:09;10.20;;;1.90;;
82163;SDS011;71736;38.734;-9.138;2023-10-19T13:40:39;10.70;;;1.90;;
82163;SDS011;71736;38.734;-9.138;2023-10-19T13:43:07;9.80;;;1.90;;
82163;SDS011;71736;38.734;-9.138;2023-10-19T13:45:33;11.80;;;2.50;;
82163;SDS011;71736;38.734;-9.138;2023-10-19T13:50:32;11.20;;;2.30;;
82163;SDS011;71736;38.734;-9.138;2023-10-19T13:52:59;8.30;;;1.60;;
82163;SDS011;71736;38.734;-9.138;2023-10-19T13:55:26;5.40;;;1.60;;
82163;SDS011;71736;38.734;-9.138;2023-10-19T14:00:18;8.70;;;1.80;;
82163;SDS011;71736;38.734;-9.138;2023-10-19T14:03:07;2.70;;;0.60;;
82163;SDS011;71736;38.734;-9.138;2023-10-19T14:05:37;9.10;;;3.20;;
82163;SDS011;71736;38.734;-9.138;2023-10-19T14:08:04;7.60;;;2.30;;
82163;SDS011;71736;38.734;-9.138;2023-10-19T14:10:31;11.50;;;3.50;;
82163;SDS011;71736;38.734;-9.138;2023-10-19T14:12:56;8.50;;;1.80;;
82163;SDS011;71736;38.734;-9.138;2023-10-19T14:15:22;9.40;;;1.60;;
82163;SDS011;71736;38.734;-9.138;2023-10-19T14:17:48;5.90;;;1.20;;
82163;SDS011;71736;38.734;-9.138;2023-10-19T14:20:15;7.80;;;1.30;;
82163;SDS011;71736;38.734;-9.138;2023-10-19T14:22:42;10.50;;;1.70;;
82163;SDS011;71736;38.734;-9.138;2023-10-19T14:25:08;6.50;;;1.10;;
82163;SDS011;71736;38.734;-9.138;2023-10-19T14:27:38;3.80;;;1.20;;
82163;SDS011;71736;38.734;-9.138;2023-10-19T14:30:06;7.80;;;1.40;;
82163;SDS011;71736;38.734;-9.138;2023-10-19T14:32:32;9.00;;;2.20;;
82163;SDS011;71736;38.734;-9.138;2023-10-19T14:34:58;6.80;;;1.20;;
82163;SDS011;71736;38.734;-9.138;2023-10-19T14:37:24;6.40;;;1.10;;
82163;SDS011;71736;38.734;-9.138;2023-10-19T14:39:50;7.50;;;1.80;;
82163;SDS011;71736;38.734;-9.138;2023-10-19T14:42:16;7.70;;;1.40;;
82163;SDS011;71736;38.734;-9.138;2023-10-19T14:44:41;6.10;;;1.30;;
82163;SDS011;71736;38.734;-9.138;2023-10-19T14:47:07;9.30;;;1.90;;
82163;SDS011;71736;38.734;-9.138;2023-10-19T14:49:34;5.20;;;1.20;;
82163;SDS011;71736;38.734;-9.138;2023-10-19T14:51:59;5.60;;;1.30;;
82163;SDS011;71736;38.734;-9.138;2023-10-19T14:54:25;8.60;;;1.90;;
82163;SDS011;71736;38.734;-9.138;2023-10-19T14:56:51;7.40;;;1.70;;
82163;SDS011;71736;38.734;-9.138;2023-10-19T14:59:16;11.70;;;1.60;;
82163;SDS011;71736;38.734;-9.138;2023-10-19T15:04:09;8.30;;;2.20;;
82163;SDS011;71736;38.734;-9.138;2023-10-19T15:06:34;8.00;;;1.30;;
82163;SDS011;71736;38.734;-9.138;2023-10-19T15:09:01;5.50;;;1.50;;
82163;SDS011;71736;38.734;-9.138;2023-10-19T15:11:27;5.50;;;1.40;;
82163;SDS011;71736;38.734;-9.138;2023-10-19T15:13:53;7.10;;;1.20;;
82163;SDS011;71736;38.734;-9.138;2023-10-19T15:16:19;9.90;;;2.60;;
82163;SDS011;71736;38.734;-9.138;2023-10-19T15:18:44;10.30;;;1.70;;
82163;SDS011;71736;38.734;-9.138;2023-10-19T15:21:10;8.30;;;1.50;;
82163;SDS011;71736;38.734;-9.138;2023-10-19T15:26:02;4.30;;;0.80;;
82163;SDS011;71736;38.734;-9.138;2023-10-19T15:28:28;6.20;;;1.70;;
82163;SDS011;71736;38.734;-9.138;2023-10-19T15:31:00;8.00;;;1.60;;
82163;SDS011;71736;38.734;-9.138;2023-10-19T15:33:26;4.70;;;0.60;;
82163;SDS011;71736;38.734;-9.138;2023-10-19T15:35:52;7.00;;;1.40;;
82163;SDS011;71736;38.734;-9.138;2023-10-19T15:38:19;5.70;;;1.40;;
82163;SDS011;71736;38.734;-9.138;2023-10-19T15:40:46;4.90;;;1.30;;
82163;SDS011;71736;38.734;-9.138;2023-10-19T15:43:11;9.70;;;1.60;;